Time;durP1;ratioP1;P1;durP2;ratioP2;P2;SDS_P1;SDS_P2;PMS_P1;PMS_P2;Temp;Humidity;BMP_temperature;BMP_pressure;BME280_temperature;BME280_humidity;BME280_pressure;Samples;Min_cycle;Max_cycle;Signal;HPM_P1;HPM_P2
2022/04/22 00:01:09;;;;;;;91.90;36.65;;;;;;;-144.47;72.49;53471.84;5069802;28;20021;-66
2022/04/22 00:03:34;;;;;;;91.50;37.45;;;;;;;-144.47;72.66;53463.91;5070282;28;20511;-64
2022/04/22 00:06:00;;;;;;;88.47;36.78;;;;;;;-144.47;72.61;53438.09;5070004;28;20040;-69
2022/04/22 00:08:26;;;;;;;90.97;36.85;;;;;;;-144.47;72.61;53453.97;5070072;28;20037;-68
2022/04/22 00:13:35;;;;;;;92.22;37.92;;;;;;;-144.47;73.04;53457.94;5069212;28;20451;-66
2022/04/22 00:16:02;;;;;;;88.82;35.60;;;;;;;-144.47;73.08;53463.91;5069585;28;20498;-68
2022/04/22 00:18:27;;;;;;;93.15;36.83;;;;;;;-144.47;72.83;53432.13;5070210;28;20397;-64
2022/04/22 00:20:53;;;;;;;98.88;38.53;;;;;;;-144.47;73.19;53471.84;5069200;28;20037;-66
2022/04/22 00:23:19;;;;;;;93.20;37.33;;;;;;;-144.47;73.04;53459.94;5069602;28;20495;-66
2022/04/22 00:25:44;;;;;;;104.38;39.50;;;;;;;-144.47;73.08;53440.06;5069296;28;20032;-66
2022/04/22 00:28:09;;;;;;;88.55;36.97;;;;;;;-144.47;73.01;53457.94;5070173;28;20020;-65
2022/04/22 00:30:35;;;;;;;97.45;37.75;;;;;;;-144.47;73.15;53467.88;5051774;28;20021;-66
2022/04/22 00:33:00;;;;;;;85.82;37.22;;;;;;;-144.47;72.95;53483.78;5069563;28;20063;-65
2022/04/22 00:35:25;;;;;;;108.70;41.25;;;;;;;-144.47;72.96;53479.81;5069198;28;20054;-67
2022/04/22 00:37:51;;;;;;;96.32;40.30;;;;;;;-144.47;72.98;53434.09;5069645;28;20041;-67
2022/04/22 00:40:16;;;;;;;101.85;38.70;;;;;;;-144.47;72.98;53461.91;5069492;28;20040;-67
2022/04/22 00:42:41;;;;;;;92.65;36.15;;;;;;;-144.47;72.73;53452.00;5068943;28;20397;-66
2022/04/22 00:45:08;;;;;;;94.70;37.10;;;;;;;-144.47;72.55;53459.94;5068988;28;20037;-66
2022/04/22 00:47:33;;;;;;;99.50;39.53;;;;;;;-144.47;72.60;53465.91;5069202;28;20032;-66
2022/04/22 00:49:58;;;;;;;85.72;36.65;;;;;;;-144.47;72.46;53455.97;5049823;28;20040;-64
2022/04/22 00:52:24;;;;;;;89.97;38.17;;;;;;;-144.47;72.51;53467.88;5064364;28;20047;-67
2022/04/22 00:54:49;;;;;;;84.28;35.53;;;;;;;-144.47;72.27;53446.03;5069443;28;20021;-65
2022/04/22 00:57:18;;;;;;;89.20;35.90;;;;;;;-144.47;72.35;53495.69;5069190;28;20158;-64
2022/04/22 00:59:44;;;;;;;83.82;34.78;;;;;;;-144.47;72.15;53467.88;5068904;28;20036;-67
2022/04/22 01:02:09;;;;;;;92.65;36.90;;;;;;;-144.47;72.09;53473.84;5068733;28;20033;-67
2022/04/22 01:10:03;;;;;;;93.00;36.95;;;;;;;-144.47;72.28;53487.75;5069055;28;20028;-64
2022/04/22 01:12:30;;;;;;;95.70;37.33;;;;;;;-144.47;72.37;53465.91;5068481;28;20016;-66
2022/04/22 01:14:56;;;;;;;99.53;37.97;;;;;;;-144.47;72.43;53475.81;5068062;28;20112;-65
2022/04/22 01:17:22;;;;;;;86.97;36.47;;;;;;;-144.47;72.61;53483.78;5068983;28;20044;-65
2022/04/22 01:19:47;;;;;;;90.20;37.75;;;;;;;-144.47;72.62;53453.97;5068662;28;20037;-67
2022/04/22 01:22:13;;;;;;;95.28;38.35;;;;;;;-144.47;72.65;53442.06;5068276;28;20020;-65
2022/04/22 01:24:38;;;;;;;91.45;36.47;;;;;;;-144.47;72.87;53481.78;5069067;28;20021;-66
2022/04/22 01:27:05;;;;;;;95.13;37.47;;;;;;;-144.47;72.68;53444.03;5069094;28;20588;-66
2022/04/22 01:29:32;;;;;;;88.00;37.08;;;;;;;-144.47;72.89;53467.88;5068814;28;20131;-64
2022/04/22 01:31:59;;;;;;;90.35;36.17;;;;;;;-144.47;72.79;53440.06;5063564;28;20048;-67
2022/04/22 01:34:24;;;;;;;90.25;37.30;;;;;;;-144.47;72.89;53450.00;5069249;28;20028;-68
2022/04/22 01:36:50;;;;;;;87.22;36.17;;;;;;;-144.47;72.68;53459.94;5068954;28;20024;-64
2022/04/22 01:39:15;;;;;;;98.00;38.70;;;;;;;-144.47;72.85;53452.00;5068923;28;20033;-68
2022/04/22 01:41:41;;;;;;;86.72;34.90;;;;;;;-144.47;72.65;53422.19;5067638;28;20545;-66
2022/04/22 01:44:06;;;;;;;94.20;37.50;;;;;;;-144.47;72.67;53497.69;5068459;28;20124;-69
2022/04/22 01:46:32;;;;;;;90.28;36.75;;;;;;;-144.47;72.77;53465.91;5065485;28;20101;-65
2022/04/22 01:48:58;;;;;;;81.72;35.92;;;;;;;-144.47;72.77;53471.84;5063574;28;20024;-66
2022/04/22 01:51:23;;;;;;;87.43;37.50;;;;;;;-144.47;72.71;53473.84;5050293;28;20036;-66
2022/04/22 01:53:49;;;;;;;86.82;35.78;;;;;;;-144.47;72.87;53436.09;5069121;28;20387;-66
2022/04/22 01:56:14;;;;;;;98.20;36.78;;;;;;;-144.47;72.87;53442.06;5068961;28;20448;-67
2022/04/22 01:58:40;;;;;;;90.10;38.00;;;;;;;-144.47;73.00;53453.97;5069124;28;20241;-66
2022/04/22 02:01:05;;;;;;;97.38;37.88;;;;;;;-144.47;72.88;53440.06;5068545;28;20027;-67
2022/04/22 02:03:30;;;;;;;95.18;38.58;;;;;;;-144.47;72.92;53461.91;5069483;28;20013;-65
2022/04/22 02:05:55;;;;;;;92.45;36.70;;;;;;;-144.47;72.80;53455.97;5068495;28;20037;-67
2022/04/22 02:08:21;;;;;;;106.95;38.90;;;;;;;-144.47;72.35;53452.00;5068877;28;20493;-64
2022/04/22 02:10:46;;;;;;;100.35;37.67;;;;;;;-144.47;72.39;53453.97;5067137;28;20036;-66
2022/04/22 02:13:12;;;;;;;102.80;38.58;;;;;;;-144.47;72.80;53483.78;5068155;28;20016;-67
2022/04/22 02:15:38;;;;;;;92.47;39.15;;;;;;;-144.47;72.44;53467.88;5069840;28;20023;-66
2022/04/22 02:18:03;;;;;;;95.53;37.42;;;;;;;-144.47;72.45;53485.75;5069469;28;20226;-66
2022/04/22 02:20:29;;;;;;;95.63;39.08;;;;;;;-144.47;72.58;53448.00;5068885;28;20089;-67
2022/04/22 02:22:54;;;;;;;94.57;39.05;;;;;;;-144.47;72.60;53479.81;5068889;28;20044;-68
2022/04/22 02:25:19;;;;;;;100.10;37.72;;;;;;;-144.47;72.42;53440.06;5070082;28;21586;-68
2022/04/22 02:30:29;;;;;;;101.32;39.10;;;;;;;-144.47;72.75;53483.78;5072859;28;20043;-68
2022/04/22 02:32:54;;;;;;;101.65;39.30;;;;;;;-144.47;72.69;53453.97;5072007;28;20036;-67
2022/04/22 02:35:21;;;;;;;96.72;37.88;;;;;;;-144.47;72.76;53479.81;5072026;28;20034;-65
2022/04/22 02:37:47;;;;;;;104.68;38.88;;;;;;;-144.47;72.90;53459.94;5069463;28;20043;-67
2022/04/22 02:45:26;;;;;;;94.28;39.33;;;;;;;-144.47;73.13;53440.06;5072698;28;20024;-64
2022/04/22 02:45:42;;;;;;;101.13;40.05;;;;;;;-144.47;73.06;53483.78;5069605;28;20043;-67
2022/04/22 02:48:07;;;;;;;114.57;40.90;;;;;;;-144.47;73.33;53479.81;5067304;28;20028;-65
2022/04/22 02:50:33;;;;;;;101.53;38.60;;;;;;;-144.47;73.02;53434.09;5071577;28;20028;-67
2022/04/22 02:52:58;;;;;;;99.63;38.78;;;;;;;-144.47;73.28;53465.91;5070945;28;20031;-67
2022/04/22 02:55:23;;;;;;;96.13;37.92;;;;;;;-144.47;73.30;53465.91;5071670;28;20071;-68
2022/04/22 02:57:49;;;;;;;109.35;40.30;;;;;;;-144.47;73.20;53489.72;5071236;28;20404;-66
2022/04/22 03:00:14;;;;;;;98.65;39.15;;;;;;;-144.47;73.41;53483.78;5072014;28;20039;-66
2022/04/22 03:02:42;;;;;;;103.63;40.75;;;;;;;-144.47;73.47;53473.84;5070670;28;20028;-66
2022/04/22 03:05:09;;;;;;;104.95;39.55;;;;;;;-144.47;73.22;53442.06;5053651;28;20028;-64
2022/04/22 03:07:34;;;;;;;112.05;40.95;;;;;;;-144.47;73.15;53475.81;5070768;28;20126;-65
2022/04/22 03:09:59;;;;;;;110.25;40.58;;;;;;;-144.47;72.92;53475.81;5053592;28;20596;-67
2022/04/22 03:12:25;;;;;;;101.18;39.53;;;;;;;-144.47;72.87;53465.91;5051561;28;20078;-65
2022/04/22 03:14:51;;;;;;;112.32;41.40;;;;;;;-144.47;72.88;53463.91;5071335;28;20037;-67
2022/04/22 03:17:16;;;;;;;105.60;39.78;;;;;;;-144.47;73.02;53463.91;5070436;28;20032;-63
2022/04/22 03:19:42;;;;;;;103.63;40.72;;;;;;;-144.47;73.11;53483.78;5071347;28;20032;-68
2022/04/22 03:22:08;;;;;;;103.30;41.05;;;;;;;-144.47;73.09;53491.72;5070351;28;20028;-65
2022/04/22 03:24:33;;;;;;;105.95;40.53;;;;;;;-144.47;73.25;53483.78;5071734;28;20100;-67
2022/04/22 03:26:59;;;;;;;110.95;40.97;;;;;;;-144.47;73.12;53471.84;5067831;28;20037;-65
2022/04/22 03:29:24;;;;;;;121.65;42.95;;;;;;;-144.47;73.12;53483.78;5072200;28;20031;-66
2022/04/22 03:31:50;;;;;;;97.20;40.38;;;;;;;-144.47;72.83;53434.09;5070349;28;20036;-67
2022/04/22 03:34:15;;;;;;;102.65;40.85;;;;;;;-144.47;72.99;53493.72;5071167;28;20024;-67
2022/04/22 03:36:40;;;;;;;100.15;39.97;;;;;;;-144.47;72.72;53444.03;5070862;28;20092;-67
2022/04/22 03:39:05;;;;;;;97.97;40.78;;;;;;;-144.47;72.85;53475.81;5070135;28;20032;-67
2022/04/22 03:41:31;;;;;;;103.15;41.90;;;;;;;-144.47;73.02;53467.88;5069556;28;20029;-67
2022/04/22 03:43:56;;;;;;;102.45;40.75;;;;;;;-144.47;72.83;53523.50;5070879;28;20481;-67
2022/04/22 03:46:21;;;;;;;105.03;40.92;;;;;;;-144.47;72.95;53485.75;5070743;28;20040;-68
2022/04/22 03:48:47;;;;;;;102.88;40.60;;;;;;;-144.47;72.86;53463.91;5049880;28;20028;-65
2022/04/22 03:51:13;;;;;;;114.55;43.95;;;;;;;-144.47;73.03;53432.13;5070340;28;20036;-67
2022/04/22 03:53:40;;;;;;;109.03;41.53;;;;;;;-144.47;73.13;53521.50;5071013;28;20053;-67
2022/04/22 03:58:49;;;;;;;115.25;42.42;;;;;;;-144.47;73.27;53475.81;5070826;28;20051;-66
2022/04/22 04:01:15;;;;;;;108.47;41.47;;;;;;;-144.47;73.02;53471.84;5069895;28;20013;-64
2022/04/22 04:03:40;;;;;;;111.63;44.25;;;;;;;-144.47;73.14;53479.81;5070412;28;20413;-67
2022/04/22 04:06:07;;;;;;;112.53;41.78;;;;;;;-144.47;72.90;53463.91;5070271;28;20067;-66
2022/04/22 04:08:33;;;;;;;111.43;41.97;;;;;;;-144.47;72.95;53453.97;5069889;28;20039;-65
2022/04/22 04:16:26;;;;;;;118.43;43.75;;;;;;;-144.47;72.96;53481.78;5065937;28;20566;-68
2022/04/22 04:18:51;;;;;;;112.63;44.80;;;;;;;-144.47;72.70;53517.53;5052132;28;20139;-65
2022/04/22 04:24:00;;;;;;;115.32;45.00;;;;;;;-144.47;72.66;53481.78;5070059;28;20114;-66
2022/04/22 04:26:26;;;;;;;111.15;42.97;;;;;;;-144.47;72.56;53469.88;5070651;28;20128;-67
2022/04/22 04:28:53;;;;;;;116.72;44.88;;;;;;;-144.47;72.50;53487.75;5069129;28;20110;-65
2022/04/22 04:31:19;;;;;;;117.70;44.67;;;;;;;-144.47;72.24;53475.81;5069438;28;20508;-68
2022/04/22 04:33:45;;;;;;;115.75;44.75;;;;;;;-144.47;72.13;53479.81;5069796;28;20038;-66
2022/04/22 04:36:11;;;;;;;116.88;46.00;;;;;;;-144.47;71.97;53495.69;5070101;28;20118;-68
2022/04/22 04:38:38;;;;;;;117.32;45.20;;;;;;;-144.47;72.16;53483.78;5070722;28;20448;-66
2022/04/22 04:41:06;;;;;;;110.63;45.53;;;;;;;-144.47;72.23;53453.97;5069565;28;20025;-66
2022/04/22 04:43:32;;;;;;;123.93;46.05;;;;;;;-144.47;72.17;53452.00;5068808;28;20025;-68
2022/04/22 04:45:58;;;;;;;119.03;44.05;;;;;;;-144.47;72.21;53459.94;5070378;28;20012;-67
2022/04/22 04:48:23;;;;;;;126.05;48.38;;;;;;;-144.47;72.36;53459.94;5069517;28;20074;-68
2022/04/22 04:50:51;;;;;;;101.97;41.22;;;;;;;-144.47;72.32;53453.97;5069015;28;20033;-67
2022/04/22 04:53:17;;;;;;;126.10;45.92;;;;;;;-144.47;72.41;53477.81;5066550;28;20523;-68
2022/04/22 04:55:43;;;;;;;112.43;44.13;;;;;;;-144.47;72.37;53471.84;5069551;28;20333;-66
2022/04/22 04:58:08;;;;;;;114.75;43.55;;;;;;;-144.47;72.50;53475.81;5068659;28;20028;-68
2022/04/22 05:00:34;;;;;;;117.22;45.08;;;;;;;-144.47;72.56;53442.06;5069796;28;20012;-65
2022/04/22 05:02:59;;;;;;;110.57;42.58;;;;;;;-144.47;72.72;53499.66;5069014;28;20420;-68
2022/04/22 05:05:25;;;;;;;110.95;43.55;;;;;;;-144.47;72.65;53501.66;5066340;28;20031;-65
2022/04/22 05:07:58;;;;;;;114.93;44.67;;;;;;;-144.47;72.81;53432.13;5069001;28;20069;-67
2022/04/22 05:10:30;;;;;;;118.80;45.15;;;;;;;-144.47;72.88;53505.63;5068881;28;20043;-68
2022/04/22 05:12:56;;;;;;;116.25;45.08;;;;;;;-144.47;72.84;53471.84;5068655;28;20040;-64
2022/04/22 05:15:23;;;;;;;114.43;44.10;;;;;;;-144.47;72.79;53467.88;5051475;28;20516;-68
2022/04/22 05:17:49;;;;;;;106.97;44.70;;;;;;;-144.47;72.33;53477.81;5068547;28;20037;-68
2022/04/22 05:20:17;;;;;;;122.13;47.80;;;;;;;-144.47;72.26;53479.81;5068794;28;20463;-66
2022/04/22 05:22:43;;;;;;;120.38;46.97;;;;;;;-144.47;72.20;53467.88;5080595;22;20673;-70
2022/04/22 05:25:10;;;;;;;111.88;44.80;;;;;;;-144.47;71.93;53487.75;5065129;28;20035;-72
2022/04/22 05:27:36;;;;;;;109.97;43.38;;;;;;;-144.47;71.85;53489.72;5060619;28;20025;-69
2022/04/22 05:32:47;;;;;;;122.40;45.15;;;;;;;-144.47;71.27;53495.69;5064487;28;20086;-67
2022/04/22 05:35:15;;;;;;;121.80;46.13;;;;;;;-144.47;71.24;53487.75;5067083;28;20032;-71
2022/04/22 05:37:44;;;;;;;122.22;47.00;;;;;;;-144.47;71.08;53455.97;5064394;28;20040;-69
2022/04/22 05:40:11;;;;;;;123.43;49.42;;;;;;;-144.47;70.60;53473.84;5063957;28;20020;-71
2022/04/22 05:42:39;;;;;;;119.93;47.30;;;;;;;-144.47;70.68;53491.72;5061344;28;20013;-71
2022/04/22 05:45:06;;;;;;;110.78;48.47;;;;;;;-144.47;70.23;53459.94;5059331;28;20037;-71
2022/04/22 05:47:32;;;;;;;111.95;44.20;;;;;;;-144.47;70.18;53455.97;5055791;28;20397;-71
2022/04/22 05:49:57;;;;;;;116.13;47.38;;;;;;;-144.47;69.77;53479.81;5062840;28;20036;-72
2022/04/22 05:52:22;;;;;;;118.97;46.55;;;;;;;-144.47;69.37;53453.97;5058967;28;20036;-68
2022/04/22 05:54:48;;;;;;;123.53;49.42;;;;;;;-144.47;69.27;53430.13;5063717;28;20028;-68
2022/04/22 05:57:13;;;;;;;112.20;47.30;;;;;;;-144.47;68.70;53461.91;5062013;28;20190;-70
2022/04/22 05:59:38;;;;;;;113.15;46.75;;;;;;;-144.47;68.82;53467.88;5064376;28;20032;-70
2022/04/22 06:02:04;;;;;;;113.85;46.05;;;;;;;-144.47;68.83;53479.81;5067496;28;20346;-70
2022/04/22 06:04:29;;;;;;;123.10;50.38;;;;;;;-144.47;68.48;53426.16;5068871;28;20041;-68
2022/04/22 06:06:55;;;;;;;120.88;48.70;;;;;;;-144.47;67.18;53459.94;5051044;28;20024;-71
2022/04/22 06:12:04;;;;;;;121.85;49.05;;;;;;;-144.47;66.74;53457.94;5063082;28;20036;-67
2022/04/22 06:14:29;;;;;;;122.68;48.92;;;;;;;-144.47;66.21;53463.91;5060832;28;20024;-67
2022/04/22 06:16:55;;;;;;;112.20;47.90;;;;;;;-144.47;66.21;53481.78;5072213;28;20032;-68
2022/04/22 06:19:20;;;;;;;116.00;47.22;;;;;;;-144.47;65.64;53485.75;5070924;28;20444;-70
2022/04/22 06:21:45;;;;;;;108.90;47.60;;;;;;;-144.47;65.37;53471.84;5052546;28;20021;-70
2022/04/22 06:24:11;;;;;;;115.72;49.00;;;;;;;-144.47;65.07;53463.91;5070942;28;20040;-68
2022/04/22 06:26:38;;;;;;;118.82;47.92;;;;;;;-144.47;64.62;53438.09;5060984;28;20025;-71
2022/04/22 06:29:03;;;;;;;111.57;48.50;;;;;;;-144.47;63.25;53434.09;5060361;28;20037;-68
2022/04/22 06:31:29;;;;;;;119.88;52.10;;;;;;;-144.47;63.05;53410.28;5060592;28;20033;-68
2022/04/22 06:33:56;;;;;;;117.18;49.35;;;;;;;-144.47;62.51;53416.22;5062931;28;20025;-70
2022/04/22 06:36:25;;;;;;;120.57;49.05;;;;;;;-144.47;62.39;53448.00;5061797;28;20033;-70
2022/04/22 06:38:54;;;;;;;117.88;50.47;;;;;;;-144.47;61.77;53446.03;5063800;28;20043;-70
2022/04/22 06:46:48;;;;;;;137.73;53.53;;;;;;;-144.47;63.20;53453.97;5062901;28;20563;-70
2022/04/22 06:49:14;;;;;;;119.90;50.65;;;;;;;-144.47;63.05;53477.81;5065646;28;20025;-70
2022/04/22 06:51:40;;;;;;;126.57;51.50;;;;;;;-144.47;63.15;53465.91;5052420;28;20543;-67
2022/04/22 06:54:06;;;;;;;123.15;51.78;;;;;;;-144.47;62.83;53467.88;5061567;28;20020;-70
2022/04/22 06:56:31;;;;;;;123.82;51.05;;;;;;;-144.47;62.60;53471.84;5062969;28;20071;-70
2022/04/22 06:58:56;;;;;;;136.25;52.45;;;;;;;-144.47;62.37;53452.00;5065406;28;20064;-69
2022/04/22 07:01:22;;;;;;;139.50;53.78;;;;;;;-144.47;61.90;53471.84;5058879;28;20037;-70
2022/04/22 07:03:47;;;;;;;118.45;49.00;;;;;;;-144.47;61.52;53432.13;5053420;28;20036;-70
2022/04/22 07:06:13;;;;;;;131.10;51.22;;;;;;;-144.47;61.66;53422.19;5070447;28;21270;-70
2022/04/22 07:08:40;;;;;;;118.90;50.42;;;;;;;-144.47;61.55;53493.72;5070959;28;20036;-70
2022/04/22 07:11:06;;;;;;;120.15;51.80;;;;;;;-144.47;61.00;53436.09;5062733;28;20044;-70
2022/04/22 07:13:32;;;;;;;116.68;48.80;;;;;;;-144.47;61.35;53465.91;5060324;28;20393;-69
2022/04/22 07:15:59;;;;;;;123.50;50.83;;;;;;;-144.47;61.51;53463.91;5061892;28;20401;-67
2022/04/22 07:18:25;;;;;;;134.30;51.90;;;;;;;-144.47;61.34;53493.72;5070261;28;20029;-68
2022/04/22 07:20:50;;;;;;;124.50;52.00;;;;;;;-144.47;60.95;53444.03;5067527;28;20112;-70
2022/04/22 07:23:16;;;;;;;111.50;48.65;;;;;;;-144.47;60.56;53428.16;5065619;28;20116;-71
2022/04/22 07:25:46;;;;;;;110.10;48.05;;;;;;;-144.47;59.94;53438.09;5067362;28;20057;-69
2022/04/22 07:28:12;;;;;;;111.32;44.42;;;;;;;-144.47;59.64;53432.13;5059307;28;20520;-71
2022/04/22 07:30:39;;;;;;;113.15;46.28;;;;;;;-144.47;59.57;53453.97;5068180;28;20298;-69
2022/04/22 07:33:08;;;;;;;102.72;46.38;;;;;;;-144.47;59.60;53412.25;5060484;28;20041;-69
2022/04/22 07:35:34;;;;;;;129.63;48.80;;;;;;;-144.47;59.40;53448.00;5065001;28;20119;-71
2022/04/22 07:37:59;;;;;;;106.30;45.72;;;;;;;-144.47;58.46;53438.09;5065471;28;20136;-70
2022/04/22 07:40:25;;;;;;;111.18;47.85;;;;;;;-144.47;58.43;53428.16;5065984;28;20431;-69
2022/04/22 07:48:22;;;;;;;109.05;47.45;;;;;;;-144.47;57.69;53414.25;5066592;28;20040;-70
2022/04/22 07:50:48;;;;;;;126.38;52.03;;;;;;;-144.47;57.75;53416.22;5061589;28;20049;-74
2022/04/22 07:53:15;;;;;;;105.20;46.55;;;;;;;-144.47;57.30;53424.19;5048785;28;20036;-72
2022/04/22 07:55:40;;;;;;;113.40;45.97;;;;;;;-144.47;56.57;53446.03;5061474;28;20037;-68
2022/04/22 07:58:06;;;;;;;111.85;47.83;;;;;;;-144.47;56.24;53428.16;5063032;28;20066;-71
2022/04/22 08:00:32;;;;;;;115.40;47.22;;;;;;;-144.47;56.54;53428.16;5049284;28;20520;-70
2022/04/22 08:02:57;;;;;;;100.75;44.90;;;;;;;-144.47;56.09;53444.03;5063702;28;20048;-70
2022/04/22 08:05:23;;;;;;;97.47;43.92;;;;;;;-144.47;54.90;53418.22;5060401;28;20079;-69
2022/04/22 08:07:48;;;;;;;104.13;43.90;;;;;;;-144.47;55.20;53438.09;5063640;28;20067;-70
2022/04/22 08:10:13;;;;;;;95.47;42.55;;;;;;;-144.47;55.47;53404.31;5047130;28;20035;-70
2022/04/22 08:12:39;;;;;;;100.32;41.88;;;;;;;-144.47;55.05;53440.06;5064379;28;20471;-67
2022/04/22 08:15:04;;;;;;;97.53;42.60;;;;;;;-144.47;54.51;53420.22;5046832;28;20021;-68
2022/04/22 08:17:37;;;;;;;97.35;41.00;;;;;;;-144.47;54.45;53408.28;5051216;28;20036;-69
2022/04/22 08:20:06;;;;;;;95.35;40.15;;;;;;;-144.47;54.45;53426.16;5060594;28;20442;-71
2022/04/22 08:22:32;;;;;;;87.35;40.65;;;;;;;-144.47;54.05;53424.19;5060711;28;20028;-72
2022/04/22 08:24:57;;;;;;;86.82;38.78;;;;;;;-144.47;53.91;53396.38;5060840;28;20021;-70
2022/04/22 08:27:26;;;;;;;90.47;39.10;;;;;;;-144.47;53.90;53424.19;5057642;28;20035;-70
2022/04/22 08:29:52;;;;;;;;;;;;;;;-144.47;54.58;53428.16;5063268;28;20086;-72
2022/04/22 08:32:18;;;;;;;81.85;38.35;;;;;;;-144.47;54.62;53432.13;5050725;28;20304;-71
2022/04/22 08:34:44;;;;;;;81.80;34.95;;;;;;;-144.47;54.23;53432.13;5057169;28;20053;-71
2022/04/22 08:37:10;;;;;;;83.72;37.85;;;;;;;-144.47;54.16;53424.19;5063251;28;20020;-70
2022/04/22 08:39:35;;;;;;;80.93;37.05;;;;;;;-144.47;54.10;53364.59;5064650;28;20082;-70
2022/04/22 08:42:02;;;;;;;78.55;37.78;;;;;;;-144.47;53.72;53457.94;5062322;28;20025;-69
2022/04/22 08:44:28;;;;;;;83.13;35.42;;;;;;;-144.47;53.92;53404.31;5051130;28;20086;-70
2022/04/22 08:52:24;;;;;;;67.22;31.80;;;;;;;-144.47;52.17;53428.16;5057440;28;20103;-70
2022/04/22 08:54:53;;;;;;;71.53;32.63;;;;;;;-144.47;52.19;53394.38;5060287;28;20025;-68
2022/04/22 08:57:19;;;;;;;65.63;31.05;;;;;;;-144.47;53.18;53414.25;5056733;28;20488;-71
2022/04/22 08:59:45;;;;;;;61.33;30.67;;;;;;;-144.47;51.95;53372.53;5048027;28;20417;-70
2022/04/22 09:02:12;;;;;;;70.95;33.35;;;;;;;-144.47;52.11;53396.38;5056972;28;20088;-72
2022/04/22 09:04:37;;;;;;;71.00;33.08;;;;;;;-144.47;53.32;53394.38;5057282;28;20037;-68
2022/04/22 09:07:04;;;;;;;69.70;31.55;;;;;;;-144.47;52.56;53394.38;5064731;28;20366;-69
2022/04/22 09:09:29;;;;;;;63.72;32.00;;;;;;;-144.47;51.86;53410.28;5059782;28;20455;-70
2022/04/22 09:12:06;;;;;;;69.22;30.88;;;;;;;-144.47;52.46;53392.41;5047214;28;20047;-70
2022/04/22 09:14:31;;;;;;;67.97;32.10;;;;;;;-144.47;52.49;53440.06;5058828;28;20558;-69
2022/04/22 09:16:57;;;;;;;68.70;31.60;;;;;;;-144.47;52.29;53364.59;5058172;28;20037;-68
2022/04/22 09:19:22;;;;;;;70.22;32.35;;;;;;;-144.47;52.91;53394.38;5061641;28;20025;-69
2022/04/22 09:21:57;;;;;;;61.30;31.30;;;;;;;-144.47;52.92;53418.22;5063996;28;20103;-68
2022/04/22 09:24:22;;;;;;;67.15;30.88;;;;;;;-144.47;52.96;53416.22;5061424;28;20036;-67
2022/04/22 09:27:02;;;;;;;58.97;28.58;;;;;;;-144.47;52.68;53360.63;5057141;28;20036;-68
2022/04/22 09:29:28;;;;;;;58.85;27.17;;;;;;;-144.47;51.82;53400.34;5052094;28;20128;-69
2022/04/22 09:31:53;;;;;;;52.28;27.15;;;;;;;-144.47;51.49;53396.38;5059418;28;20137;-69
2022/04/22 09:34:36;;;;;;;52.45;27.63;;;;;;;-144.47;50.60;53386.44;5050079;28;20047;-68
2022/04/22 09:42:39;;;;;;;50.97;24.42;;;;;;;-144.47;49.75;53384.44;5050614;28;20037;-66
2022/04/22 09:43:17;;;;;;;54.72;24.35;;;;;;;-144.47;49.94;53384.44;5059141;28;20117;-70
2022/04/22 09:45:44;;;;;;;48.55;24.95;;;;;;;-144.47;49.80;53372.53;5065891;28;20099;-68
2022/04/22 09:48:14;;;;;;;49.72;26.30;;;;;;;-144.47;51.00;53406.31;5054101;28;20060;-68
2022/04/22 09:50:45;;;;;;;51.53;25.65;;;;;;;-144.47;51.72;53398.34;5061221;28;20029;-68
2022/04/22 09:53:12;;;;;;;54.42;25.52;;;;;;;-144.47;51.19;53384.44;5058198;28;20025;-70
2022/04/22 09:55:53;;;;;;;53.60;25.42;;;;;;;-144.47;49.80;53402.31;5063950;28;20024;-70
2022/04/22 09:58:26;;;;;;;49.92;23.92;;;;;;;-144.47;50.50;53368.56;5048362;28;20019;-70
2022/04/22 10:00:59;;;;;;;45.47;23.42;;;;;;;-144.47;49.88;53412.25;5064829;28;20021;-69
2022/04/22 10:03:27;;;;;;;53.30;23.98;;;;;;;-144.47;49.51;53392.41;5055438;28;20179;-70
2022/04/22 10:05:53;;;;;;;46.37;23.47;;;;;;;-144.47;49.17;53420.22;5066334;28;20041;-70
2022/04/22 10:08:20;;;;;;;54.33;27.38;;;;;;;-144.47;50.45;53396.38;5046340;28;20025;-68
2022/04/22 10:10:46;;;;;;;58.20;27.98;;;;;;;-144.47;50.65;53386.44;5057868;28;20033;-68
2022/04/22 10:13:17;;;;;;;51.03;26.08;;;;;;;-144.47;51.45;53392.41;5057930;28;20021;-71
2022/04/22 10:15:45;;;;;;;49.47;27.08;;;;;;;-144.47;51.63;53396.38;5059311;28;20104;-70
2022/04/22 10:18:13;;;;;;;58.50;27.58;;;;;;;-144.47;51.98;53434.09;5055518;28;20055;-68
2022/04/22 10:20:39;;;;;;;47.43;25.30;;;;;;;-144.47;51.40;53440.06;5057647;28;20525;-69
2022/04/22 10:23:05;;;;;;;59.25;25.77;;;;;;;-144.47;51.12;53364.59;5055675;28;20094;-69
2022/04/22 10:25:31;;;;;;;45.95;23.63;;;;;;;-144.47;51.31;53400.34;5060324;28;20048;-70
2022/04/22 10:27:59;;;;;;;54.03;23.35;;;;;;;-144.47;50.88;53394.38;5067747;28;20234;-69
2022/04/22 10:30:25;;;;;;;46.78;23.00;;;;;;;-144.47;51.02;53398.34;5049582;28;20052;-68
2022/04/22 10:32:51;;;;;;;45.20;22.95;;;;;;;-144.47;51.24;53364.59;5046514;28;20059;-69
2022/04/22 10:35:22;;;;;;;46.92;22.17;;;;;;;-144.47;50.70;53392.41;5057812;28;20037;-71
2022/04/22 10:37:49;;;;;;;47.33;21.27;;;;;;;-144.47;50.29;53362.59;5058791;28;20033;-70
2022/04/22 10:40:26;;;;;;;39.90;20.02;;;;;;;-144.47;49.99;53384.44;5057539;28;20074;-69
2022/04/22 10:42:55;;;;;;;49.33;19.75;;;;;;;-144.47;49.78;53356.63;5059194;28;20158;-72
2022/04/22 10:48:26;;;;;;;36.40;18.33;;;;;;;-144.47;49.38;53398.34;5066370;28;20044;-70
2022/04/22 10:50:58;;;;;;;42.00;17.80;;;;;;;-144.47;49.33;53402.31;5051107;28;20045;-70
2022/04/22 10:53:26;;;;;;;47.72;18.08;;;;;;;-144.47;48.91;53368.56;5052775;28;20496;-68
2022/04/22 10:55:51;;;;;;;38.10;17.50;;;;;;;-144.47;48.97;53396.38;5066731;28;20125;-68
2022/04/22 10:58:16;;;;;;;39.45;17.70;;;;;;;-144.47;49.29;53362.59;5063318;28;20095;-70
2022/04/22 11:00:44;;;;;;;45.53;19.05;;;;;;;-144.47;49.50;53394.38;5059338;28;20092;-72
2022/04/22 11:03:13;;;;;;;43.45;21.92;;;;;;;-144.47;49.08;53416.22;5069901;28;20563;-69
2022/04/22 11:05:43;;;;;;;39.10;19.40;;;;;;;-144.47;49.06;53408.28;5068088;28;20044;-71
2022/04/22 11:08:20;;;;;;;37.15;19.63;;;;;;;-144.47;48.94;53396.38;5065615;28;20119;-69
2022/04/22 11:10:46;;;;;;;33.05;19.50;;;;;;;-144.47;49.15;53406.31;5052660;28;20043;-70
2022/04/22 11:13:41;;;;;;;36.38;20.65;;;;;;;-144.47;49.11;53410.28;5048753;28;20028;-66
2022/04/22 11:16:16;;;;;;;39.78;20.08;;;;;;;-144.47;49.03;53380.47;5064748;28;20040;-70
2022/04/22 11:19:05;;;;;;;33.97;18.83;;;;;;;-144.47;48.21;53384.44;5062764;28;20028;-70
2022/04/22 11:21:30;;;;;;;;;;;;;;;-144.47;48.22;53404.31;5063311;28;20433;-67
2022/04/22 11:23:56;;;;;;;57.47;26.02;;;;;;;-144.47;48.75;53390.41;5093476;22;19928;-68
2022/04/22 11:26:22;;;;;;;50.58;23.95;;;;;;;-144.47;48.73;53334.78;5070656;28;20498;-68
2022/04/22 11:28:47;;;;;;;45.67;26.17;;;;;;;-144.47;49.73;53376.50;5070115;28;20102;-67
2022/04/22 11:31:14;;;;;;;41.70;21.35;;;;;;;-144.47;49.43;53400.34;5067075;28;20020;-68
2022/04/22 11:34:05;;;;;;;49.97;24.70;;;;;;;-144.47;49.17;53390.41;5065118;28;20421;-68
2022/04/22 11:36:30;;;;;;;44.05;23.42;;;;;;;-144.47;49.53;53366.56;5054482;28;20148;-67
2022/04/22 11:38:55;;;;;;;47.15;22.48;;;;;;;-144.47;49.20;53384.44;5050229;28;20518;-66
2022/04/22 11:41:22;;;;;;;44.60;23.80;;;;;;;-144.47;49.92;53394.38;5052555;28;20037;-67
2022/04/22 11:43:48;;;;;;;50.30;24.15;;;;;;;-144.47;50.05;53416.22;5051660;28;20135;-67
2022/04/22 11:46:15;;;;;;;42.92;24.33;;;;;;;-144.47;50.48;53416.22;5061441;28;20082;-64
2022/04/22 11:48:45;;;;;;;44.80;24.15;;;;;;;-144.47;50.14;53416.22;5059740;28;20021;-69
2022/04/22 11:51:11;;;;;;;44.45;24.85;;;;;;;-144.47;50.29;53428.16;5054706;28;20029;-66